This is the latest recevied weather packets stored in our database for station/object FW7644. If no packets are shown the sender has not sent any weather packets the latest 10 day(s).
| Time | Temp. | Humidity | Pressure | Rain* | Wind** | Luminosity | Snow |
|---|---|---|---|---|---|---|---|
| 1778158524 | 23.33° C | 69% | 1017.8 hPa | 0 mm | - | - | - |
| 1778158222 | 24.44° C | 64% | 1017.9 hPa | 0 mm | - | - | - |
| 1778157920 | 25.56° C | 62% | 1017.9 hPa | 0 mm | - | - | - |
| 1778157617 | 24.44° C | 63% | 1018 hPa | 0 mm | - | - | - |
| 1778157314 | 25° C | 64% | 1017.9 hPa | 0 mm | - | - | - |
| 1778157012 | 24.44° C | 64% | 1017.9 hPa | 0 mm | - | - | - |
| 1778156710 | 25° C | 65% | 1017.9 hPa | 0 mm | - | - | - |
| 1778156407 | 23.89° C | 68% | 1018 hPa | 0 mm | - | - | - |
| 1778156105 | 23.89° C | 69% | 1018 hPa | 0 mm | - | - | - |
| 1778155803 | 23.89° C | 70% | 1018 hPa | 0 mm | - | - | - |
| 1778155501 | 21.67° C | 80% | 1018 hPa | 0 mm | - | - | - |
| 1778155197 | 20° C | 88% | 1018 hPa | 0 mm | - | - | - |
| 1778154895 | 20° C | 85% | 1018.1 hPa | 0 mm | - | - | - |
| 1778154591 | 20.56° C | 84% | 1018.1 hPa | 0 mm | - | - | - |
| 1778154289 | 20.56° C | 85% | 1018.2 hPa | 0 mm | - | - | - |
| 1778153987 | 21.11° C | 81% | 1018.2 hPa | 0 mm | - | - | - |
| 1778153684 | 21.67° C | 78% | 1018.2 hPa | 0 mm | - | - | - |
| 1778153382 | 22.22° C | 76% | 1018.2 hPa | 0 mm | - | - | - |
| 1778153080 | 23.89° C | 69% | 1018.3 hPa | 0 mm | - | - | - |
| 1778152776 | 23.89° C | 68% | 1018.4 hPa | 0 mm | - | - | - |
| 1778152474 | 23.89° C | 69% | 1018.5 hPa | 0 mm | - | - | - |
| 1778152172 | 22.78° C | 75% | 1018.3 hPa | 0 mm | - | - | - |
| 1778151870 | 22.22° C | 76% | 1018.3 hPa | 0 mm | - | - | - |
| 1778151568 | 21.67° C | 81% | 1018.4 hPa | 0 mm | - | - | - |
| 1778151266 | 20.56° C | 99% | 1018.3 hPa | 0 mm | - | - | - |
* Rain latest hour (hover to see other rain measurements)
** Current wind speed in m/s (hover to see current wind gust speed)